createdAt,value
2018-07-15T00:01:53.845Z,97975.52
2018-07-15T00:04:22.510Z,97970.45
2018-07-15T00:06:51.173Z,97967.41
2018-07-15T00:09:19.637Z,97952.17
2018-07-15T00:11:48.184Z,98000.88
2018-07-15T00:14:16.665Z,98011.03
2018-07-15T00:16:45.196Z,97983.64
2018-07-15T00:19:13.672Z,98005.95
2018-07-15T00:21:42.191Z,97989.72
2018-07-15T00:24:10.693Z,98036.40
2018-07-15T00:26:39.237Z,98022.19
2018-07-15T00:29:07.861Z,98010.02
2018-07-15T00:31:36.768Z,98031.33
2018-07-15T00:34:05.281Z,98006.97
2018-07-15T00:36:33.786Z,98003.92
2018-07-15T00:39:02.302Z,98031.33
2018-07-15T00:41:30.775Z,98026.25
2018-07-15T00:43:59.309Z,98026.25
2018-07-15T00:46:27.803Z,98037.41
2018-07-15T00:48:56.318Z,98056.70
2018-07-15T00:51:24.827Z,98044.52
2018-07-15T00:53:53.361Z,98082.06
2018-07-15T00:56:21.850Z,98041.47
2018-07-15T00:58:50.942Z,98049.59
2018-07-15T01:01:19.457Z,98055.68
2018-07-15T01:03:47.982Z,98069.89
2018-07-15T01:06:16.518Z,98083.08
2018-07-15T01:08:44.982Z,98095.25
2018-07-15T01:11:13.461Z,98095.25
2018-07-15T01:13:42.013Z,98076.98
2018-07-15T01:16:10.542Z,98084.09
2018-07-15T01:18:39.040Z,98106.41
2018-07-15T01:21:07.541Z,98057.70
2018-07-15T01:23:36.037Z,98093.22
2018-07-15T01:26:04.594Z,98111.48
2018-07-15T01:28:33.067Z,98112.50
2018-07-15T01:31:01.609Z,98115.55
2018-07-15T01:33:30.085Z,98093.22
2018-07-15T01:35:58.586Z,98115.55
2018-07-15T01:38:27.452Z,98150.05
2018-07-15T01:40:55.950Z,98155.13
2018-07-15T01:43:24.470Z,98165.27
2018-07-15T01:45:52.977Z,98148.02
2018-07-15T01:48:21.493Z,98127.73
2018-07-15T01:50:50.125Z,98126.71
2018-07-15T01:53:18.578Z,98142.95
2018-07-15T01:55:47.068Z,98171.36
2018-07-15T01:58:15.568Z,98144.98
2018-07-15T02:00:44.078Z,98180.49
2018-07-15T02:03:12.652Z,98208.91
2018-07-15T02:05:41.182Z,98264.72
2018-07-15T02:08:09.713Z,98160.20
2018-07-15T02:10:38.305Z,98160.20
2018-07-15T02:13:06.879Z,98208.91
2018-07-15T02:15:35.377Z,98236.30
2018-07-15T02:18:03.880Z,98218.03
2018-07-15T02:20:32.385Z,98236.30
2018-07-15T02:23:00.861Z,98236.30
2018-07-15T02:25:29.357Z,98221.09
2018-07-15T02:27:57.880Z,98232.24
2018-07-15T02:30:26.367Z,98232.24
2018-07-15T02:32:55.045Z,98242.39
2018-07-15T02:35:23.872Z,98218.03
2018-07-15T02:37:52.391Z,98255.59
2018-07-15T02:40:20.895Z,98211.95
2018-07-15T02:42:50.386Z,98191.66
2018-07-15T02:45:18.959Z,98244.42
2018-07-15T02:47:47.482Z,98233.26
2018-07-15T02:50:16.013Z,98214.99
2018-07-15T02:52:44.516Z,98199.77
2018-07-15T02:55:13.096Z,98214.99
2018-07-15T02:57:41.578Z,98228.19
2018-07-15T03:00:10.085Z,98204.84
2018-07-15T03:02:38.569Z,98259.64
2018-07-15T03:05:07.057Z,98229.20
2018-07-15T03:07:36.042Z,98256.59
2018-07-15T03:10:04.702Z,98287.05
2018-07-15T03:12:33.176Z,98207.89
2018-07-15T03:15:01.665Z,98301.25
2018-07-15T03:17:30.172Z,98269.80
2018-07-15T03:19:58.662Z,98265.73
2018-07-15T03:22:27.146Z,98285.02
2018-07-15T03:24:55.675Z,98259.64
2018-07-15T03:27:24.177Z,98295.16
2018-07-15T03:29:52.732Z,98323.58
2018-07-15T03:32:21.258Z,98307.34
2018-07-15T03:34:49.770Z,98281.97
2018-07-15T03:37:18.247Z,98253.55
2018-07-15T03:39:47.139Z,98294.15
2018-07-15T03:42:15.601Z,98274.86
2018-07-15T03:44:46.903Z,98301.25
2018-07-15T03:47:15.570Z,98286.03
2018-07-15T03:49:44.113Z,98276.90
2018-07-15T03:52:12.643Z,98264.72
2018-07-15T03:54:41.134Z,98240.36
2018-07-15T03:57:09.630Z,98310.38
2018-07-15T03:59:38.138Z,98222.09
2018-07-15T04:02:06.690Z,98265.73
2018-07-15T04:04:35.273Z,98266.75
2018-07-15T04:07:03.790Z,98276.90
2018-07-15T04:09:32.293Z,98248.48
2018-07-15T04:12:00.841Z,98255.59
2018-07-15T04:14:29.308Z,98234.27
2018-07-15T04:16:57.752Z,98195.72
2018-07-15T04:19:26.308Z,98205.86
2018-07-15T04:21:54.856Z,98182.52
2018-07-15T04:24:23.353Z,98171.36
2018-07-15T04:26:51.862Z,98119.61
2018-07-15T04:29:20.376Z,98120.63
2018-07-15T04:31:49.210Z,98118.59
2018-07-15T04:34:17.705Z,98062.78
2018-07-15T04:36:46.181Z,98041.47
2018-07-15T04:39:14.720Z,98045.53
2018-07-15T04:41:43.261Z,98006.97
2018-07-15T04:44:11.767Z,97990.73
2018-07-15T04:46:40.237Z,98014.08
2018-07-15T04:49:09.154Z,97975.52
2018-07-15T04:51:37.797Z,97959.28
2018-07-15T04:54:06.601Z,97967.41
2018-07-15T04:56:35.125Z,97983.64
2018-07-15T04:59:03.581Z,97999.88
2018-07-15T05:01:32.054Z,97927.83
2018-07-15T05:04:00.556Z,97874.05
2018-07-15T05:06:29.097Z,97855.78
2018-07-15T05:08:57.592Z,97616.33
2018-07-15T05:11:26.233Z,97303.84
2018-07-15T05:13:54.641Z,97161.82
2018-07-15T05:16:23.134Z,97118.20
2018-07-15T05:18:51.753Z,97238.92
2018-07-15T05:21:20.239Z,97362.69
2018-07-15T05:23:48.774Z,97366.75
2018-07-15T05:26:17.253Z,97114.14
2018-07-15T05:28:45.745Z,96715.48
2018-07-15T05:31:14.285Z,96995.45
2018-07-15T05:33:42.781Z,97060.38
2018-07-15T05:36:11.333Z,97258.20
2018-07-15T05:38:39.857Z,97233.84
2018-07-15T05:41:08.617Z,97193.27
2018-07-15T05:43:37.141Z,97043.13
2018-07-15T05:46:06.084Z,97046.17
2018-07-15T05:48:34.558Z,97089.80
2018-07-15T05:51:03.031Z,97137.48
2018-07-15T05:53:31.525Z,96762.15
2018-07-15T05:55:59.984Z,97088.78
2018-07-15T05:58:28.851Z,97226.75
2018-07-15T06:00:57.342Z,96581.59
2018-07-15T06:03:26.534Z,96937.63
2018-07-15T06:05:55.555Z,97238.92
2018-07-15T06:08:26.293Z,96471.04
2018-07-15T06:10:54.837Z,97049.22
2018-07-15T06:13:23.328Z,96873.73
2018-07-15T06:15:51.824Z,97084.72
2018-07-15T06:18:20.371Z,96755.05
2018-07-15T06:20:48.865Z,96704.33
2018-07-15T06:23:17.381Z,97031.97
2018-07-15T06:25:45.859Z,96690.12
2018-07-15T06:28:14.744Z,96988.35
2018-07-15T06:30:43.244Z,96509.58
2018-07-15T06:33:11.723Z,96570.44
2018-07-15T06:35:40.259Z,96783.45
2018-07-15T06:38:09.342Z,96771.28
2018-07-15T06:40:41.333Z,96420.33
2018-07-15T06:43:09.852Z,96812.87
2018-07-15T06:45:38.325Z,96955.89
2018-07-15T06:48:07.038Z,97076.61
2018-07-15T06:50:36.083Z,96875.75
2018-07-15T06:53:04.596Z,96682.02
2018-07-15T06:55:33.202Z,96701.29
2018-07-15T06:58:01.810Z,96599.86
2018-07-15T07:00:30.412Z,96962.99
2018-07-15T07:02:58.979Z,96783.45
2018-07-15T07:05:27.534Z,96173.88
2018-07-15T07:07:56.116Z,96429.45
2018-07-15T07:10:24.650Z,96168.80
2018-07-15T07:12:53.165Z,96464.95
2018-07-15T07:15:21.859Z,96184.02
2018-07-15T07:17:50.340Z,96732.73
2018-07-15T07:20:18.825Z,96832.14
2018-07-15T07:22:47.309Z,97071.53
2018-07-15T07:25:15.808Z,96894.02
2018-07-15T07:27:44.344Z,96939.66
2018-07-15T07:30:13.744Z,97026.91
2018-07-15T07:32:42.236Z,97058.34
2018-07-15T07:35:10.710Z,97085.73
2018-07-15T07:37:39.205Z,97043.13
2018-07-15T07:40:07.693Z,97025.89
2018-07-15T07:42:36.222Z,96987.34
2018-07-15T07:45:04.807Z,96988.35
2018-07-15T07:47:33.318Z,97005.59
2018-07-15T07:50:01.792Z,96874.74
2018-07-15T07:52:30.321Z,96904.16
2018-07-15T07:54:58.800Z,96933.58
2018-07-15T07:57:27.272Z,96865.61
2018-07-15T07:59:55.754Z,96921.41
2018-07-15T08:02:24.657Z,96850.39
2018-07-15T08:04:53.191Z,96792.58
2018-07-15T08:07:21.669Z,96798.66
2018-07-15T08:09:50.144Z,96810.84
2018-07-15T08:12:18.684Z,96872.72
2018-07-15T08:14:47.577Z,96806.78
2018-07-15T08:17:16.045Z,96884.89
2018-07-15T08:19:44.535Z,96729.69
2018-07-15T08:22:13.046Z,96717.52
2018-07-15T08:24:41.580Z,96756.06
2018-07-15T08:27:10.068Z,96801.70
2018-07-15T08:29:47.829Z,96749.97
2018-07-15T08:32:16.331Z,96778.38
2018-07-15T08:34:44.841Z,96766.20
2018-07-15T08:37:13.725Z,96710.41
2018-07-15T08:39:42.169Z,96646.52
2018-07-15T08:42:10.657Z,96685.06
2018-07-15T08:44:39.269Z,96669.84
2018-07-15T08:47:07.816Z,96621.16
2018-07-15T08:49:36.701Z,96612.03
2018-07-15T08:52:05.208Z,96539.00
2018-07-15T08:54:33.750Z,96530.89
2018-07-15T08:57:02.239Z,96575.52
2018-07-15T08:59:30.768Z,96471.04
2018-07-15T09:01:59.236Z,96402.07
2018-07-15T09:04:29.675Z,96539.00
2018-07-15T09:06:58.642Z,96464.95
2018-07-15T09:09:27.169Z,96466.98
2018-07-15T09:11:55.641Z,96523.78
2018-07-15T09:14:24.169Z,96476.11
2018-07-15T09:16:53.086Z,96428.44
2018-07-15T09:19:21.692Z,96443.66
2018-07-15T09:21:50.204Z,96334.13
2018-07-15T09:24:19.028Z,96285.44
2018-07-15T09:26:47.526Z,96347.30
2018-07-15T09:29:15.995Z,96389.91
2018-07-15T09:31:44.480Z,96265.16
2018-07-15T09:34:13.309Z,96279.35
2018-07-15T09:36:42.245Z,96289.49
2018-07-15T09:39:11.331Z,96312.82
2018-07-15T09:41:40.255Z,96251.97
2018-07-15T09:44:09.428Z,96264.14
2018-07-15T09:46:37.957Z,96242.84
2018-07-15T09:49:06.681Z,96218.50
2018-07-15T09:51:35.154Z,96231.69
2018-07-15T09:54:03.639Z,96197.20
2018-07-15T09:56:32.162Z,96231.69
2018-07-15T09:59:01.011Z,96230.67
2018-07-15T10:01:29.532Z,96194.16
2018-07-15T10:03:58.086Z,96217.48
2018-07-15T10:06:26.657Z,96179.96
2018-07-15T10:08:55.153Z,96158.66
2018-07-15T10:11:23.888Z,96096.80
2018-07-15T10:13:52.405Z,96116.07
2018-07-15T10:16:20.897Z,96024.80
2018-07-15T10:18:49.751Z,96045.08
2018-07-15T10:21:18.427Z,96050.15
2018-07-15T10:23:48.317Z,96039.00
2018-07-15T10:26:16.958Z,95976.12
2018-07-15T10:28:45.437Z,96022.77
2018-07-15T10:31:13.942Z,95936.56
2018-07-15T10:33:42.495Z,95951.78
2018-07-15T10:36:11.230Z,95896.00
2018-07-15T10:38:40.045Z,95866.59
2018-07-15T10:41:08.549Z,95804.73
2018-07-15T10:43:37.265Z,95846.31
2018-07-15T10:46:05.901Z,95913.25
2018-07-15T10:48:34.384Z,95871.67
2018-07-15T10:51:02.886Z,95883.84
2018-07-15T10:53:31.372Z,95844.28
2018-07-15T10:55:59.843Z,95829.08
2018-07-15T10:58:28.363Z,95808.80
2018-07-15T11:00:56.879Z,95771.27
2018-07-15T11:03:25.387Z,95843.27
2018-07-15T11:05:53.920Z,95771.27
2018-07-15T11:08:22.405Z,95812.85
2018-07-15T11:10:50.990Z,95759.11
2018-07-15T11:13:19.482Z,95755.05
2018-07-15T11:15:48.292Z,95881.81
2018-07-15T11:18:16.812Z,95767.22
2018-07-15T11:20:45.761Z,95696.23
2018-07-15T11:23:14.305Z,95708.41
2018-07-15T11:25:43.001Z,95611.05
2018-07-15T11:28:11.513Z,95548.19
2018-07-15T11:30:40.105Z,95619.17
2018-07-15T11:33:08.642Z,95581.65
2018-07-15T11:35:37.173Z,95708.41
2018-07-15T11:38:05.717Z,95680.01
2018-07-15T11:40:34.225Z,95569.48
2018-07-15T11:43:02.697Z,95599.90
2018-07-15T11:45:31.525Z,95681.02
2018-07-15T11:48:00.019Z,95607.00
2018-07-15T11:50:28.543Z,95507.62
2018-07-15T11:52:57.392Z,95503.58
2018-07-15T11:55:26.350Z,95484.30
2018-07-15T11:57:54.814Z,95515.74
2018-07-15T12:00:23.293Z,95494.45
2018-07-15T12:02:52.134Z,95474.17
2018-07-15T12:05:20.637Z,95432.59
2018-07-15T12:07:49.138Z,95453.89
2018-07-15T12:10:18.025Z,95456.93
2018-07-15T12:12:46.497Z,95445.78
2018-07-15T12:15:15.023Z,95346.41
2018-07-15T12:17:43.532Z,95317.00
2018-07-15T12:20:12.025Z,95419.41
2018-07-15T12:22:40.539Z,95405.22
2018-07-15T12:25:09.069Z,95346.41
2018-07-15T12:27:37.551Z,95427.52
2018-07-15T12:30:06.488Z,95456.93
2018-07-15T12:32:35.006Z,95422.45
2018-07-15T12:35:03.485Z,95456.93
2018-07-15T12:37:32.393Z,95473.16
2018-07-15T12:40:00.852Z,95509.66
2018-07-15T12:42:29.376Z,95437.66
2018-07-15T12:44:57.937Z,95378.86
2018-07-15T12:47:26.431Z,95452.88
2018-07-15T12:49:54.941Z,95342.35
2018-07-15T12:52:23.526Z,95363.65
2018-07-15T12:54:52.064Z,95311.94
2018-07-15T12:57:20.634Z,95200.41
2018-07-15T12:59:49.206Z,95178.10
2018-07-15T13:02:17.729Z,95128.42
2018-07-15T13:04:46.303Z,95276.45
2018-07-15T13:07:14.889Z,95351.48
2018-07-15T13:09:43.385Z,95236.91
2018-07-15T13:12:12.000Z,95162.89
2018-07-15T13:14:40.545Z,95380.88
2018-07-15T13:17:09.049Z,95222.71
2018-07-15T13:19:38.049Z,95156.81
2018-07-15T13:22:06.882Z,95181.14
2018-07-15T13:24:35.412Z,95129.44
2018-07-15T13:27:04.023Z,95118.28
2018-07-15T13:29:32.597Z,95075.70
2018-07-15T13:32:01.514Z,95189.25
2018-07-15T13:34:30.072Z,95167.96
2018-07-15T13:36:58.583Z,95094.97
2018-07-15T13:39:27.075Z,95049.34
2018-07-15T13:41:56.625Z,95144.64
2018-07-15T13:44:25.086Z,95133.48
2018-07-15T13:46:53.661Z,95108.14
2018-07-15T13:49:22.185Z,95185.20
2018-07-15T13:51:50.670Z,95202.44
2018-07-15T13:54:20.287Z,95124.37
2018-07-15T13:56:48.791Z,95131.46
2018-07-15T13:59:17.306Z,95183.17
2018-07-15T14:01:45.805Z,95143.63
2018-07-15T14:04:14.484Z,95102.06
2018-07-15T14:06:42.951Z,95033.12
2018-07-15T14:09:11.444Z,95120.31
2018-07-15T14:11:40.081Z,95036.16
2018-07-15T14:14:08.598Z,95066.58
2018-07-15T14:16:37.090Z,94976.34
2018-07-15T14:19:05.603Z,94991.55
2018-07-15T14:21:34.119Z,95090.91
2018-07-15T14:24:02.634Z,95007.77
2018-07-15T14:26:31.157Z,94859.76
2018-07-15T14:28:59.709Z,94775.61
2018-07-15T14:31:28.330Z,94901.32
2018-07-15T14:33:56.840Z,94894.22
2018-07-15T14:36:25.392Z,95068.61
2018-07-15T14:38:53.902Z,94900.31
2018-07-15T14:41:22.397Z,94896.25
2018-07-15T14:43:51.329Z,94797.92
2018-07-15T14:46:19.829Z,94996.62
2018-07-15T14:48:48.309Z,94988.51
2018-07-15T14:51:17.305Z,94984.45
2018-07-15T14:53:45.785Z,95006.76
2018-07-15T14:56:14.309Z,94955.05
2018-07-15T14:58:42.812Z,94973.30
2018-07-15T15:01:11.306Z,94871.92
2018-07-15T15:03:39.845Z,94889.16
2018-07-15T15:06:08.541Z,94975.33
2018-07-15T15:08:37.087Z,94916.53
2018-07-15T15:11:05.765Z,94945.93
2018-07-15T15:13:34.253Z,94939.84
2018-07-15T15:16:03.141Z,94991.55
2018-07-15T15:18:31.646Z,95001.69
2018-07-15T15:21:00.148Z,94979.38
2018-07-15T15:23:28.665Z,94881.05
2018-07-15T15:25:57.165Z,94833.40
2018-07-15T15:28:25.656Z,94845.56
2018-07-15T15:30:54.173Z,94796.90
2018-07-15T15:33:22.785Z,94883.08
2018-07-15T15:35:51.293Z,94913.48
2018-07-15T15:38:19.853Z,94858.74
2018-07-15T15:40:48.408Z,95024.00
2018-07-15T15:43:16.908Z,94928.70
2018-07-15T15:45:45.422Z,94903.34
2018-07-15T15:48:13.970Z,94875.98
2018-07-15T15:50:42.522Z,94884.09
2018-07-15T15:53:11.026Z,94844.55
2018-07-15T15:55:39.534Z,94768.52
2018-07-15T15:58:08.137Z,94819.20
2018-07-15T16:00:36.694Z,94878.00
2018-07-15T16:03:05.897Z,94883.08
2018-07-15T16:05:34.453Z,94918.55
2018-07-15T16:08:02.998Z,94954.04
2018-07-15T16:10:31.497Z,94867.87
2018-07-15T16:13:00.034Z,94881.05
2018-07-15T16:15:28.519Z,94871.92
2018-07-15T16:17:56.992Z,94749.25
2018-07-15T16:20:25.533Z,94756.35
2018-07-15T16:22:54.063Z,94688.43
2018-07-15T16:25:22.620Z,94840.50
2018-07-15T16:27:51.138Z,94792.84
2018-07-15T16:30:19.684Z,94786.77
2018-07-15T16:32:48.309Z,94855.70
2018-07-15T16:35:16.827Z,94779.67
2018-07-15T16:37:45.290Z,94672.21
2018-07-15T16:40:13.872Z,94745.20
2018-07-15T16:42:42.404Z,94793.86
2018-07-15T16:45:11.014Z,94876.98
2018-07-15T16:47:39.493Z,94936.80
2018-07-15T16:50:08.026Z,94896.25
2018-07-15T16:52:36.526Z,94848.61
2018-07-15T16:55:05.078Z,94808.05
2018-07-15T16:57:33.566Z,94827.31
2018-07-15T17:00:02.096Z,94926.67
2018-07-15T17:02:30.998Z,94987.50
2018-07-15T17:04:59.487Z,95024.00
2018-07-15T17:07:28.002Z,95014.88
2018-07-15T17:09:56.545Z,94962.15
2018-07-15T17:12:25.097Z,94952.02
2018-07-15T17:14:53.589Z,94922.61
2018-07-15T17:17:22.114Z,94994.59
2018-07-15T17:19:50.667Z,94969.25
2018-07-15T17:22:19.241Z,94850.63
2018-07-15T17:24:47.838Z,94827.31
2018-07-15T17:27:16.773Z,94866.85
2018-07-15T17:29:45.269Z,94929.70
2018-07-15T17:32:13.806Z,94971.27
2018-07-15T17:34:42.321Z,95004.73
2018-07-15T17:37:10.868Z,94960.12
2018-07-15T17:39:39.430Z,94990.53
2018-07-15T17:42:07.953Z,94992.56
2018-07-15T17:44:36.421Z,94947.95
2018-07-15T17:47:04.967Z,94994.59
2018-07-15T17:49:33.509Z,94994.59
2018-07-15T17:52:01.989Z,95075.70
2018-07-15T17:54:30.530Z,95050.35
2018-07-15T17:56:59.040Z,94980.40
2018-07-15T17:59:27.920Z,94863.81
2018-07-15T18:01:56.441Z,94799.95
2018-07-15T18:04:25.095Z,94469.47
2018-07-15T18:06:53.705Z,94662.08
2018-07-15T18:09:22.230Z,94574.89
2018-07-15T18:11:51.119Z,94505.96
2018-07-15T18:14:19.597Z,94260.66
2018-07-15T18:16:48.146Z,94452.23
2018-07-15T18:19:16.710Z,93981.92
2018-07-15T18:21:45.188Z,94402.56
2018-07-15T18:24:13.754Z,94519.14
2018-07-15T18:26:42.234Z,94771.56
2018-07-15T18:29:10.766Z,94985.47
2018-07-15T18:31:39.231Z,95033.12
2018-07-15T18:34:07.794Z,95141.60
2018-07-15T18:36:36.272Z,95176.07
2018-07-15T18:39:05.550Z,95239.95
2018-07-15T18:41:34.021Z,95240.96
2018-07-15T18:44:02.572Z,95112.20
2018-07-15T18:46:31.066Z,95228.80
2018-07-15T18:48:59.600Z,95259.21
2018-07-15T18:51:28.088Z,95383.92
2018-07-15T18:53:56.576Z,95364.66
2018-07-15T18:56:25.123Z,95409.27
2018-07-15T18:58:53.709Z,95440.70
2018-07-15T19:01:22.413Z,95434.63
2018-07-15T19:03:51.046Z,95452.88
2018-07-15T19:06:19.754Z,95508.64
2018-07-15T19:08:48.297Z,95543.12
2018-07-15T19:11:16.877Z,95581.65
2018-07-15T19:13:45.405Z,95546.16
2018-07-15T19:16:13.967Z,95597.88
2018-07-15T19:18:42.470Z,95593.81
2018-07-15T19:21:11.012Z,95658.72
2018-07-15T19:23:39.718Z,95679.00
2018-07-15T19:26:08.485Z,95721.58
2018-07-15T19:28:37.041Z,95768.23
2018-07-15T19:31:05.889Z,95824.00
2018-07-15T19:33:34.483Z,95816.91
2018-07-15T19:36:02.997Z,95863.55
2018-07-15T19:38:31.801Z,95870.66
2018-07-15T19:41:00.445Z,95871.67
2018-07-15T19:43:29.171Z,95887.89
2018-07-15T19:45:57.791Z,95917.30
2018-07-15T19:48:26.332Z,95986.26
2018-07-15T19:50:54.833Z,96004.52
2018-07-15T19:53:23.348Z,96042.03
2018-07-15T19:55:52.305Z,96027.84
2018-07-15T19:58:20.874Z,96041.02
2018-07-15T20:00:49.390Z,96112.02
2018-07-15T20:03:17.920Z,96151.56
2018-07-15T20:05:46.399Z,96133.31
2018-07-15T20:08:14.872Z,96181.99
2018-07-15T20:10:43.441Z,96204.30
2018-07-15T20:13:12.463Z,96310.80
2018-07-15T20:15:40.906Z,96315.86
2018-07-15T20:18:09.724Z,96295.58
2018-07-15T20:20:38.245Z,96274.28
2018-07-15T20:23:06.718Z,96288.48
2018-07-15T20:25:35.288Z,96313.84
2018-07-15T20:28:03.758Z,96337.16
2018-07-15T20:30:32.277Z,96390.92
2018-07-15T20:33:00.735Z,96337.16
2018-07-15T20:35:29.270Z,96304.70
2018-07-15T20:37:57.817Z,96418.30
2018-07-15T20:40:26.309Z,96476.11
2018-07-15T20:42:55.018Z,96390.92
2018-07-15T20:45:23.530Z,96415.26
2018-07-15T20:47:52.014Z,96425.40
2018-07-15T20:50:20.575Z,96426.41
2018-07-15T20:52:49.018Z,96465.97
2018-07-15T20:55:17.542Z,96485.24
2018-07-15T20:57:46.038Z,96496.40
2018-07-15T21:00:14.531Z,96504.52
2018-07-15T21:02:43.180Z,96490.31
2018-07-15T21:05:11.567Z,96563.34
2018-07-15T21:07:40.179Z,96592.75
2018-07-15T21:10:08.738Z,96569.42
2018-07-15T21:12:37.209Z,96556.23
2018-07-15T21:15:05.713Z,96604.92
2018-07-15T21:17:34.267Z,96623.19
2018-07-15T21:20:02.753Z,96593.77
2018-07-15T21:22:31.274Z,96543.05
2018-07-15T21:24:59.764Z,96618.11
2018-07-15T21:27:28.540Z,96711.43
2018-07-15T21:29:57.480Z,96720.56
2018-07-15T21:32:25.965Z,96699.26
2018-07-15T21:34:54.840Z,96635.36
2018-07-15T21:37:23.562Z,96706.36
2018-07-15T21:39:52.048Z,96721.58
2018-07-15T21:42:20.613Z,96733.75
2018-07-15T21:44:49.214Z,96635.36
2018-07-15T21:47:17.648Z,96726.64
2018-07-15T21:49:46.108Z,96699.26
2018-07-15T21:52:14.592Z,96749.97
2018-07-15T21:54:43.463Z,96739.83
2018-07-15T21:57:11.967Z,96766.20
2018-07-15T21:59:40.444Z,96784.47
2018-07-15T22:02:09.074Z,96762.15
2018-07-15T22:04:37.593Z,96781.42
2018-07-15T22:07:17.253Z,96762.15
2018-07-15T22:09:58.651Z,96778.38
2018-07-15T22:12:27.594Z,96797.66
2018-07-15T22:14:56.150Z,96790.55
2018-07-15T22:17:24.632Z,96813.88
2018-07-15T22:19:53.147Z,96826.05
2018-07-15T22:22:21.629Z,96818.95
2018-07-15T22:24:50.501Z,96863.58
2018-07-15T22:27:18.985Z,96837.20
2018-07-15T22:29:47.490Z,96876.77
2018-07-15T22:32:15.982Z,96899.09
2018-07-15T22:34:44.478Z,96891.98
2018-07-15T22:37:12.962Z,96888.94
2018-07-15T22:39:41.485Z,96885.90
2018-07-15T22:42:10.130Z,96940.67
2018-07-15T22:44:38.712Z,96950.82
2018-07-15T22:47:07.223Z,96955.89
2018-07-15T22:49:35.705Z,96964.01
2018-07-15T22:52:04.209Z,96995.45
2018-07-15T22:54:32.688Z,97017.77
2018-07-15T22:57:01.230Z,97025.89
2018-07-15T22:59:29.744Z,97001.54
2018-07-15T23:01:58.245Z,97021.83
2018-07-15T23:04:41.063Z,97079.66
2018-07-15T23:07:09.795Z,97064.44
2018-07-15T23:09:38.427Z,97082.70
2018-07-15T23:12:07.314Z,97073.56
2018-07-15T23:14:35.828Z,97078.64
2018-07-15T23:17:04.363Z,97115.16
2018-07-15T23:19:32.858Z,97113.13
2018-07-15T23:22:01.359Z,97094.88
2018-07-15T23:24:29.825Z,97097.91
2018-07-15T23:26:58.742Z,97154.72
2018-07-15T23:29:27.236Z,97184.14
2018-07-15T23:31:55.725Z,97213.56
2018-07-15T23:34:24.213Z,97195.30
2018-07-15T23:36:52.685Z,97200.38
2018-07-15T23:39:21.318Z,97179.07
2018-07-15T23:41:49.837Z,97205.44
2018-07-15T23:44:18.296Z,97211.53
2018-07-15T23:46:46.800Z,97256.17
2018-07-15T23:49:15.332Z,97230.80
2018-07-15T23:51:43.821Z,97266.31
2018-07-15T23:54:12.345Z,97262.26
2018-07-15T23:56:40.885Z,97268.34
2018-07-15T23:59:09.408Z,97286.60
